Time;durP1;ratioP1;P1;durP2;ratioP2;P2;SDS_P1;SDS_P2;PMS_P1;PMS_P2;Temp;Humidity;BMP_temperature;BMP_pressure;BME280_temperature;BME280_humidity;BME280_pressure;Samples;Min_cycle;Max_cycle;Signal;HPM_P1;HPM_P2
2021/05/12 00:01:30;;;;;;;1.30;1.30;;;;;;;10.92;100.00;96217.09;5032244;28;20368;-64
2021/05/12 00:03:55;;;;;;;1.27;1.27;;;;;;;10.99;100.00;96219.50;5031718;28;20671;-65
2021/05/12 00:06:21;;;;;;;1.40;1.40;;;;;;;10.94;100.00;96216.81;5032448;28;20313;-65
2021/05/12 00:08:46;;;;;;;1.27;1.27;;;;;;;10.89;100.00;96220.16;5031945;28;20643;-64
2021/05/12 00:11:12;;;;;;;1.17;1.17;;;;;;;10.91;100.00;96223.34;5032806;28;20190;-64
2021/05/12 00:13:37;;;;;;;1.40;1.40;;;;;;;10.95;100.00;96223.66;5032606;28;20722;-64
2021/05/12 00:16:03;;;;;;;1.40;1.40;;;;;;;10.94;100.00;96225.47;5031769;28;20958;-64
2021/05/12 00:18:34;;;;;;;1.40;1.40;;;;;;;10.90;100.00;96223.59;5031979;28;20186;-64
2021/05/12 00:21:00;;;;;;;1.30;1.30;;;;;;;10.90;100.00;96228.84;5031847;28;20295;-64
2021/05/12 00:23:38;;;;;;;1.40;1.40;;;;;;;10.87;100.00;96231.94;5032363;28;20252;-64
2021/05/12 00:26:03;;;;;;;1.17;1.17;;;;;;;10.85;100.00;96237.44;5013757;28;20636;-64
2021/05/12 00:28:28;;;;;;;1.20;1.20;;;;;;;10.96;100.00;96233.91;5031709;28;20202;-64
2021/05/12 00:30:54;;;;;;;1.20;1.20;;;;;;;10.86;100.00;96233.78;5030960;28;20214;-64
2021/05/12 00:33:19;;;;;;;1.83;1.73;;;;;;;10.81;100.00;96231.09;5032265;28;20207;-64
2021/05/12 00:35:44;;;;;;;1.27;1.27;;;;;;;10.81;100.00;96237.09;5031434;28;20539;-64
2021/05/12 00:38:10;;;;;;;1.57;1.50;;;;;;;10.86;100.00;96248.72;5032202;28;20262;-64
2021/05/12 00:40:35;;;;;;;1.53;1.43;;;;;;;10.87;100.00;96243.19;5031708;28;20191;-64
2021/05/12 00:43:01;;;;;;;2.83;1.53;;;;;;;10.91;100.00;96248.78;5030790;28;20198;-64
2021/05/12 00:45:26;;;;;;;1.93;1.73;;;;;;;10.69;100.00;96243.50;5030996;28;20187;-64
2021/05/12 00:47:52;;;;;;;1.60;1.50;;;;;;;10.84;100.00;96244.50;5031553;28;20209;-64
2021/05/12 00:50:20;;;;;;;1.57;1.47;;;;;;;10.69;100.00;96246.13;5032275;28;20248;-64
2021/05/12 00:52:45;;;;;;;1.93;1.83;;;;;;;10.73;100.00;96242.75;5030859;28;20683;-64
2021/05/12 00:55:11;;;;;;;1.33;1.30;;;;;;;10.60;100.00;96239.66;5031500;28;20190;-64
2021/05/12 00:57:37;;;;;;;1.23;1.23;;;;;;;10.60;100.00;96239.66;5031942;28;20511;-64
2021/05/12 01:00:09;;;;;;;1.43;1.23;;;;;;;10.51;100.00;96243.72;5030341;28;20801;-64
2021/05/12 01:02:34;;;;;;;1.53;1.40;;;;;;;10.51;100.00;96251.59;5031318;28;20182;-64
2021/05/12 01:05:00;;;;;;;1.70;1.50;;;;;;;10.46;100.00;96241.03;4995763;28;20236;-64
2021/05/12 01:07:26;;;;;;;1.50;1.37;;;;;;;10.29;100.00;96246.28;5031261;28;20190;-64
2021/05/12 01:09:51;;;;;;;1.40;1.30;;;;;;;10.31;100.00;96246.81;5030736;28;20186;-64
2021/05/12 01:12:17;;;;;;;1.20;1.20;;;;;;;10.21;100.00;96254.50;5013533;28;20712;-64
2021/05/12 01:14:42;;;;;;;1.73;1.63;;;;;;;10.19;100.00;96241.69;5030936;28;20186;-64
2021/05/12 01:17:10;;;;;;;1.30;1.20;;;;;;;10.10;100.00;96263.19;5030946;28;20199;-64
2021/05/12 01:19:36;;;;;;;1.73;1.23;;;;;;;10.03;100.00;96258.91;5031448;28;20194;-63
2021/05/12 01:22:02;;;;;;;1.20;1.20;;;;;;;10.03;100.00;96256.28;5030545;28;20788;-64
2021/05/12 01:24:27;;;;;;;1.20;1.20;;;;;;;9.99;100.00;96260.41;5031254;28;20233;-64
2021/05/12 01:26:53;;;;;;;1.27;1.03;;;;;;;9.94;100.00;96256.91;5030867;28;20218;-64
2021/05/12 01:29:18;;;;;;;1.27;1.20;;;;;;;9.90;100.00;96258.41;5031181;28;20175;-64
2021/05/12 01:31:45;;;;;;;1.00;1.00;;;;;;;9.85;100.00;96258.31;5030369;28;20608;-64
2021/05/12 01:34:15;;;;;;;2.03;1.30;;;;;;;9.85;100.00;96256.50;5030808;28;20261;-63
2021/05/12 01:36:42;;;;;;;1.10;1.10;;;;;;;9.90;100.00;96259.22;5013806;28;20658;-64
2021/05/12 01:39:08;;;;;;;1.27;1.27;;;;;;;9.85;100.00;96251.28;5030011;28;20570;-64
2021/05/12 01:41:33;;;;;;;1.10;1.10;;;;;;;9.79;100.00;96259.25;5030978;28;20190;-64
2021/05/12 01:44:01;;;;;;;1.13;1.13;;;;;;;9.74;100.00;96265.19;5011876;28;20209;-63
2021/05/12 01:46:26;;;;;;;1.30;1.30;;;;;;;9.75;100.00;96256.28;5013119;28;20194;-63
2021/05/12 01:48:51;;;;;;;1.27;1.27;;;;;;;9.69;100.00;96259.06;5012254;28;20174;-63
2021/05/12 01:51:17;;;;;;;1.50;1.40;;;;;;;9.75;100.00;96256.28;5029180;28;20658;-62
2021/05/12 01:53:44;;;;;;;1.90;1.23;;;;;;;9.79;100.00;96251.41;5029995;28;20324;-64
2021/05/12 01:56:10;;;;;;;1.60;1.50;;;;;;;9.76;100.00;96259.72;5030707;28;20218;-62
2021/05/12 01:58:36;;;;;;;1.40;1.40;;;;;;;9.72;100.00;96261.22;5030330;28;20201;-63
2021/05/12 02:01:02;;;;;;;1.40;1.40;;;;;;;9.68;100.00;96263.50;5029277;28;20331;-63
2021/05/12 02:03:27;;;;;;;1.40;1.40;;;;;;;9.63;100.00;96260.81;5029994;28;20281;-63
2021/05/12 02:05:54;;;;;;;4.60;1.63;;;;;;;9.60;100.00;96258.63;5028918;28;20268;-63
2021/05/12 02:08:23;;;;;;;1.87;1.60;;;;;;;9.64;100.00;96265.00;5015143;28;20178;-62
2021/05/12 02:10:51;;;;;;;2.03;1.87;;;;;;;9.62;100.00;96256.59;5028347;28;20187;-64
2021/05/12 02:13:18;;;;;;;2.10;2.00;;;;;;;9.64;100.00;96256.38;5030646;28;20245;-63
2021/05/12 02:15:44;;;;;;;3.83;2.00;;;;;;;9.58;100.00;96251.00;5030287;28;20196;-64
2021/05/12 02:18:11;;;;;;;2.00;1.90;;;;;;;9.60;100.00;96248.16;5028026;28;20210;-63
2021/05/12 02:20:38;;;;;;;2.20;1.80;;;;;;;9.57;100.00;96248.66;5016559;28;20190;-63
2021/05/12 02:23:06;;;;;;;2.13;2.03;;;;;;;9.54;100.00;96260.38;5015694;28;20183;-63
2021/05/12 02:25:33;;;;;;;3.93;1.93;;;;;;;9.58;100.00;96260.72;5034257;28;20205;-63
2021/05/12 02:27:59;;;;;;;2.30;2.10;;;;;;;9.55;100.00;96248.88;5033479;28;20580;-63
2021/05/12 02:30:24;;;;;;;2.20;2.00;;;;;;;9.56;100.00;96242.63;5016527;28;20236;-63
2021/05/12 02:32:50;;;;;;;2.03;1.90;;;;;;;9.56;100.00;96247.06;5033587;28;20234;-63
2021/05/12 02:35:18;;;;;;;3.80;2.20;;;;;;;9.53;100.00;96257.97;5033856;28;20206;-63
2021/05/12 02:37:44;;;;;;;2.77;2.00;;;;;;;9.55;100.00;96258.53;5016211;28;20583;-64
2021/05/12 02:40:11;;;;;;;2.97;2.27;;;;;;;9.44;100.00;96249.72;5033184;28;20183;-63
2021/05/12 02:42:37;;;;;;;2.23;2.10;;;;;;;9.45;100.00;96253.13;5033695;28;20530;-63
2021/05/12 02:45:05;;;;;;;2.77;2.37;;;;;;;9.47;100.00;96254.47;5033556;28;20256;-62
2021/05/12 02:47:30;;;;;;;3.53;2.50;;;;;;;9.38;100.00;96249.84;5034045;28;20221;-63
2021/05/12 02:49:56;;;;;;;2.17;2.00;;;;;;;9.42;100.00;96251.75;5032799;28;20210;-63
2021/05/12 02:52:21;;;;;;;2.30;2.10;;;;;;;9.37;100.00;96246.44;5033720;28;20198;-64
2021/05/12 02:54:47;;;;;;;3.90;2.30;;;;;;;9.37;100.00;96254.28;5014568;28;20184;-64
2021/05/12 02:57:12;;;;;;;3.63;2.50;;;;;;;9.34;100.00;96251.34;5034081;28;20182;-63
2021/05/12 02:59:38;;;;;;;3.60;2.33;;;;;;;9.41;100.00;96250.19;5033894;28;20198;-63
2021/05/12 03:02:03;;;;;;;3.87;2.87;;;;;;;9.47;100.00;96258.94;5032987;28;20313;-63
2021/05/12 03:04:29;;;;;;;3.10;2.43;;;;;;;9.47;100.00;96256.31;5029539;28;20175;-63
2021/05/12 03:06:56;;;;;;;2.90;2.70;;;;;;;9.49;100.00;96252.41;5032664;28;20264;-63
2021/05/12 03:09:23;;;;;;;4.23;2.90;;;;;;;9.43;100.00;96255.16;5033360;28;20178;-63
2021/05/12 03:11:48;;;;;;;4.00;3.07;;;;;;;9.50;100.00;96263.69;5032802;28;20241;-65
2021/05/12 03:14:14;;;;;;;4.97;3.10;;;;;;;9.44;100.00;96267.22;5033124;28;20221;-64
2021/05/12 03:16:39;;;;;;;3.17;2.90;;;;;;;9.51;100.00;96258.22;5033663;28;20532;-63
2021/05/12 03:19:05;;;;;;;3.97;2.90;;;;;;;9.52;100.00;96257.22;5032730;28;20190;-62
2021/05/12 03:21:33;;;;;;;3.90;3.07;;;;;;;9.41;100.00;96263.25;5033404;28;20194;-63
2021/05/12 03:23:59;;;;;;;5.50;3.17;;;;;;;9.48;100.00;96263.09;5015111;28;20244;-62
2021/05/12 03:26:25;;;;;;;4.07;3.67;;;;;;;9.54;100.00;96264.81;5033134;28;20186;-63
2021/05/12 03:28:50;;;;;;;4.10;3.37;;;;;;;9.55;100.00;96272.41;5032248;28;20175;-63
2021/05/12 03:31:16;;;;;;;3.80;3.50;;;;;;;9.62;100.00;96272.28;5015412;28;20852;-62
2021/05/12 03:33:42;;;;;;;5.07;3.93;;;;;;;9.59;100.00;96277.97;5033450;28;20214;-62
2021/05/12 03:36:08;;;;;;;6.63;3.50;;;;;;;9.61;100.00;96268.09;5032324;28;20198;-62
2021/05/12 03:38:35;;;;;;;5.10;4.27;;;;;;;9.50;100.00;96263.69;5032804;28;20193;-62
2021/05/12 03:41:00;;;;;;;4.73;3.63;;;;;;;9.48;100.00;96268.34;5031858;28;20642;-63
2021/05/12 03:43:26;;;;;;;5.47;4.23;;;;;;;9.55;100.00;96269.81;5014520;28;20195;-63
2021/05/12 03:45:51;;;;;;;5.03;4.13;;;;;;;9.57;100.00;96264.34;5032106;28;20226;-63
2021/05/12 03:48:17;;;;;;;5.77;4.67;;;;;;;9.54;100.00;96262.19;5032893;28;20610;-62
2021/05/12 03:50:43;;;;;;;4.97;3.80;;;;;;;9.54;100.00;96272.66;5033005;28;20266;-62
2021/05/12 03:53:08;;;;;;;5.90;4.33;;;;;;;9.59;100.00;96268.31;5015019;28;20262;-63
2021/05/12 03:55:34;;;;;;;6.47;4.87;;;;;;;9.53;100.00;96265.81;5032876;28;20186;-63
2021/05/12 03:58:00;;;;;;;5.60;4.67;;;;;;;9.55;100.00;96264.56;5032064;28;20557;-62
2021/05/12 04:00:25;;;;;;;7.03;5.03;;;;;;;9.73;100.00;96265.44;5014585;28;20236;-63
2021/05/12 04:02:51;;;;;;;7.67;4.70;;;;;;;9.62;100.00;96274.91;5032023;28;20191;-63
2021/05/12 04:05:18;;;;;;;5.97;4.80;;;;;;;9.58;100.00;96271.94;5032393;28;20192;-63
2021/05/12 04:07:43;;;;;;;6.57;5.33;;;;;;;9.62;100.00;96269.69;5032633;28;20259;-62
2021/05/12 04:10:10;;;;;;;7.90;5.13;;;;;;;9.60;100.00;96277.75;5031828;28;20265;-63
2021/05/12 04:12:36;;;;;;;6.90;4.60;;;;;;;9.66;100.00;96273.41;5032565;28;20210;-63
2021/05/12 04:15:02;;;;;;;4.67;4.27;;;;;;;9.64;100.00;96269.44;5024014;28;20201;-63
2021/05/12 04:17:28;;;;;;;5.33;4.30;;;;;;;9.59;100.00;96270.13;5032124;28;20201;-63
2021/05/12 04:19:54;;;;;;;4.70;4.17;;;;;;;9.66;100.00;96275.22;5031788;28;20640;-63
2021/05/12 04:22:19;;;;;;;5.07;4.57;;;;;;;9.66;100.00;96268.19;5032360;28;20183;-63
2021/05/12 04:24:45;;;;;;;8.50;4.97;;;;;;;9.72;100.00;96266.44;5032546;28;20236;-63
2021/05/12 04:27:12;;;;;;;9.50;5.00;;;;;;;9.68;100.00;96268.75;5031674;28;20190;-63
2021/05/12 04:29:37;;;;;;;5.23;4.70;;;;;;;9.73;100.00;96273.28;5032323;28;20198;-62
2021/05/12 04:32:06;;;;;;;6.23;4.83;;;;;;;9.76;100.00;96283.25;5013961;28;20229;-63
2021/05/12 04:34:33;;;;;;;6.90;4.20;;;;;;;9.83;100.00;96281.31;5031816;28;20542;-63
2021/05/12 04:36:58;;;;;;;6.33;5.10;;;;;;;9.77;100.00;96277.81;5031359;28;20191;-62
2021/05/12 04:39:23;;;;;;;6.67;4.40;;;;;;;9.78;100.00;96283.84;5031413;28;20210;-63
2021/05/12 04:41:49;;;;;;;6.37;4.77;;;;;;;9.84;100.00;96285.53;5031175;28;20183;-64
2021/05/12 04:44:15;;;;;;;4.47;3.80;;;;;;;9.87;100.00;96285.03;5032022;28;20182;-63
2021/05/12 04:46:43;;;;;;;7.77;4.73;;;;;;;9.98;100.00;96281.56;5032110;28;20213;-62
2021/05/12 04:49:09;;;;;;;4.60;4.20;;;;;;;9.98;100.00;96287.63;5031373;28;20517;-62
2021/05/12 04:51:35;;;;;;;6.17;4.33;;;;;;;10.03;100.00;96284.28;5031927;28;20232;-63
2021/05/12 04:54:05;;;;;;;5.67;4.10;;;;;;;10.15;100.00;96292.09;5031283;28;20178;-62
2021/05/12 04:56:31;;;;;;;4.67;4.17;;;;;;;10.06;100.00;96290.88;5031638;28;20189;-62
2021/05/12 04:58:57;;;;;;;4.63;3.80;;;;;;;10.11;100.00;96293.59;5031302;28;20662;-62
2021/05/12 05:01:22;;;;;;;4.30;3.63;;;;;;;10.08;100.00;96307.16;5031321;28;20227;-62
2021/05/12 05:03:49;;;;;;;4.47;3.73;;;;;;;10.10;100.00;96315.56;5031069;28;20281;-63
2021/05/12 05:06:14;;;;;;;5.13;3.47;;;;;;;10.03;100.00;96311.25;5031280;28;20273;-62
2021/05/12 05:08:39;;;;;;;4.17;3.57;;;;;;;10.12;100.00;96316.94;5030761;28;20269;-63
2021/05/12 05:11:05;;;;;;;4.03;3.30;;;;;;;10.10;100.00;96313.75;5030879;28;20187;-63
2021/05/12 05:13:30;;;;;;;4.63;3.30;;;;;;;10.13;100.00;96318.53;5031686;28;20297;-63
2021/05/12 05:15:55;;;;;;;4.47;3.07;;;;;;;10.02;100.00;96322.78;5030835;28;20587;-63
2021/05/12 05:18:21;;;;;;;3.47;3.17;;;;;;;10.05;100.00;96324.13;5031867;28;20183;-63
2021/05/12 05:20:47;;;;;;;3.27;2.97;;;;;;;10.04;100.00;96314.69;5029186;28;20572;-62
2021/05/12 05:23:12;;;;;;;4.20;3.40;;;;;;;10.00;100.00;96331.91;5030908;28;20316;-63
2021/05/12 05:25:38;;;;;;;2.90;2.70;;;;;;;10.15;100.00;96323.50;5030700;28;20209;-63
2021/05/12 05:28:04;;;;;;;3.57;3.13;;;;;;;10.14;100.00;96321.94;5030249;28;20174;-63
2021/05/12 05:30:29;;;;;;;4.73;3.20;;;;;;;10.17;100.00;96331.97;5031330;28;20186;-63
2021/05/12 05:32:59;;;;;;;3.90;3.00;;;;;;;10.12;100.00;96332.66;5030106;28;20198;-62
2021/05/12 05:35:25;;;;;;;3.53;3.00;;;;;;;10.06;100.00;96328.34;5030679;28;20198;-63
2021/05/12 05:37:50;;;;;;;3.37;3.03;;;;;;;9.96;100.00;96323.72;5031162;28;20182;-66
2021/05/12 05:40:16;;;;;;;3.37;2.90;;;;;;;10.13;100.00;96329.00;5030419;28;20546;-63
2021/05/12 05:42:41;;;;;;;4.30;3.00;;;;;;;10.20;100.00;96334.09;5030688;28;20245;-62
2021/05/12 05:45:08;;;;;;;2.47;2.20;;;;;;;10.12;100.00;96330.03;5030350;28;20194;-62
2021/05/12 05:47:33;;;;;;;5.37;2.93;;;;;;;10.21;100.00;96331.25;5030863;28;20178;-62
2021/05/12 05:49:59;;;;;;;3.57;2.77;;;;;;;10.22;100.00;96327.63;5029795;28;20277;-62
2021/05/12 05:52:24;;;;;;;2.77;2.53;;;;;;;10.37;100.00;96332.31;5030874;28;20198;-63
2021/05/12 05:54:49;;;;;;;3.17;2.63;;;;;;;10.41;100.00;96334.25;5012756;28;20178;-63
2021/05/12 05:57:15;;;;;;;2.80;2.40;;;;;;;10.49;100.00;96345.34;5030223;28;20185;-61
2021/05/12 05:59:41;;;;;;;2.70;2.50;;;;;;;10.46;99.63;96344.00;5030993;28;20195;-61
2021/05/12 06:02:07;;;;;;;4.50;2.40;;;;;;;10.44;99.71;96340.81;5029630;28;20230;-61
2021/05/12 06:04:32;;;;;;;3.43;2.70;;;;;;;10.40;99.94;96343.13;5030171;28;20225;-62
2021/05/12 06:06:57;;;;;;;2.53;2.33;;;;;;;10.41;99.43;96344.72;5029875;28;20186;-63
2021/05/12 06:09:23;;;;;;;2.87;2.50;;;;;;;10.38;100.00;96347.81;5031736;28;20713;-62
2021/05/12 06:11:49;;;;;;;2.80;2.60;;;;;;;10.54;100.00;96348.84;5030723;28;20179;-61
2021/05/12 06:14:15;;;;;;;2.50;2.30;;;;;;;10.48;100.00;96349.03;5029632;28;20242;-62
2021/05/12 06:16:41;;;;;;;2.30;2.03;;;;;;;10.49;98.06;96350.59;5030733;28;20191;-62
2021/05/12 06:19:06;;;;;;;2.97;2.13;;;;;;;10.48;99.10;96352.41;5028759;28;20213;-64
2021/05/12 06:21:32;;;;;;;3.10;2.50;;;;;;;10.60;96.86;96347.91;5013416;28;20277;-63
2021/05/12 06:23:57;;;;;;;2.60;2.30;;;;;;;10.54;97.11;96348.06;5012342;28;20632;-64
2021/05/12 06:26:23;;;;;;;2.97;2.30;;;;;;;10.46;97.25;96351.09;5030269;28;20191;-63
2021/05/12 06:28:49;;;;;;;3.87;2.23;;;;;;;10.47;97.67;96353.47;5030990;28;20179;-62
2021/05/12 06:31:15;;;;;;;2.30;2.00;;;;;;;10.51;98.74;96353.78;5029633;28;20288;-62
2021/05/12 06:33:47;;;;;;;3.07;2.10;;;;;;;10.52;97.67;96353.56;5030105;28;20206;-62
2021/05/12 06:36:14;;;;;;;2.37;2.20;;;;;;;10.56;97.12;96351.25;5029512;28;20632;-63
2021/05/12 06:38:40;;;;;;;3.87;2.17;;;;;;;10.38;96.74;96358.28;5030809;28;20179;-63
2021/05/12 06:41:06;;;;;;;2.93;2.03;;;;;;;10.47;97.43;96358.72;5029176;28;20183;-63
2021/05/12 06:43:31;;;;;;;2.00;1.90;;;;;;;10.47;96.53;96348.22;5030111;28;20183;-63
2021/05/12 06:45:57;;;;;;;2.13;2.03;;;;;;;10.50;96.63;96354.81;5029381;28;20202;-63
2021/05/12 06:48:23;;;;;;;3.43;2.37;;;;;;;10.63;97.77;96347.44;5030477;28;20556;-63
2021/05/12 06:50:49;;;;;;;2.53;2.17;;;;;;;10.69;96.46;96357.00;5030100;28;20198;-64
2021/05/12 06:53:23;;;;;;;3.20;1.63;;;;;;;10.68;95.96;96350.16;5011397;28;20198;-64
2021/05/12 06:55:49;;;;;;;2.17;1.97;;;;;;;10.76;95.50;96360.22;5029447;28;20624;-64
2021/05/12 06:58:14;;;;;;;2.63;2.03;;;;;;;10.72;95.52;96356.50;5011596;28;20240;-64
2021/05/12 07:00:39;;;;;;;2.27;2.07;;;;;;;10.70;95.18;96361.19;5011846;28;20314;-64
2021/05/12 07:03:05;;;;;;;3.33;2.03;;;;;;;10.50;96.62;96358.22;5031664;28;20190;-64
2021/05/12 07:05:30;;;;;;;2.27;2.13;;;;;;;10.62;96.82;96364.19;5033195;28;20225;-64
2021/05/12 07:07:55;;;;;;;2.83;2.10;;;;;;;10.71;96.25;96364.59;5032758;28;20187;-65
2021/05/12 07:10:21;;;;;;;3.47;2.10;;;;;;;10.68;95.49;96371.13;5033562;28;20193;-64
2021/05/12 07:12:46;;;;;;;2.47;2.07;;;;;;;10.74;95.35;96367.56;5033253;28;20558;-64
2021/05/12 07:15:13;;;;;;;3.23;2.10;;;;;;;10.63;95.00;96367.63;5032934;28;20179;-65
2021/05/12 07:17:42;;;;;;;2.17;2.07;;;;;;;10.77;94.74;96368.88;5033349;28;20179;-64
2021/05/12 07:20:08;;;;;;;2.20;2.00;;;;;;;10.77;94.02;96369.69;5032624;28;20192;-63
2021/05/12 07:22:34;;;;;;;2.00;1.90;;;;;;;10.86;93.32;96369.31;5033450;28;20639;-62
2021/05/12 07:25:00;;;;;;;4.87;2.50;;;;;;;10.93;93.45;96362.84;5031889;28;20309;-64
2021/05/12 07:27:26;;;;;;;21.50;7.97;;;;;;;11.00;92.35;96354.84;5033110;28;20207;-64
2021/05/12 07:29:52;;;;;;;10.47;4.47;;;;;;;11.06;93.67;96359.91;5033410;28;20221;-64
2021/05/12 07:32:17;;;;;;;16.37;6.60;;;;;;;11.10;93.52;96355.78;5031945;28;20630;-64
2021/05/12 07:34:43;;;;;;;12.23;5.00;;;;;;;11.09;92.64;96350.78;5033077;28;20179;-63
2021/05/12 07:37:08;;;;;;;10.70;4.27;;;;;;;11.09;90.55;96354.19;5032298;28;20187;-64
2021/05/12 07:39:34;;;;;;;14.03;6.17;;;;;;;10.95;91.78;96347.69;5032643;28;20240;-64
2021/05/12 07:42:03;;;;;;;3.17;2.00;;;;;;;10.77;91.79;96343.47;5030923;28;20201;-64
2021/05/12 07:44:29;;;;;;;2.03;1.83;;;;;;;10.70;93.05;96339.44;5033132;28;20642;-64
2021/05/12 07:46:55;;;;;;;2.23;2.03;;;;;;;10.78;92.74;96339.03;5032953;28;20627;-63
2021/05/12 07:49:20;;;;;;;2.40;2.20;;;;;;;10.81;92.94;96331.47;5032534;28;20292;-63
2021/05/12 07:51:46;;;;;;;2.03;1.93;;;;;;;10.84;92.67;96338.06;5033112;28;20198;-64
2021/05/12 07:54:11;;;;;;;2.00;1.80;;;;;;;10.72;92.08;96334.75;5013486;28;20248;-64
2021/05/12 07:56:37;;;;;;;1.90;1.80;;;;;;;10.78;91.69;96339.81;5031883;28;20229;-64
2021/05/12 07:59:02;;;;;;;2.33;2.00;;;;;;;10.70;92.01;96336.81;5014104;28;20329;-64
2021/05/12 08:01:31;;;;;;;2.53;1.83;;;;;;;10.70;93.28;96334.19;5032943;28;20666;-63
2021/05/12 08:03:56;;;;;;;2.17;1.97;;;;;;;10.67;92.44;96339.91;5032248;28;20191;-63
2021/05/12 08:06:22;;;;;;;1.73;1.63;;;;;;;10.60;93.30;96347.13;5032401;28;20248;-63
2021/05/12 08:08:48;;;;;;;3.07;1.77;;;;;;;10.60;93.23;96336.63;5032549;28;20600;-63
2021/05/12 08:11:13;;;;;;;2.50;1.90;;;;;;;10.55;93.50;96342.59;5032154;28;20305;-63
2021/05/12 08:13:38;;;;;;;5.07;2.20;;;;;;;10.51;93.80;96349.34;5031588;28;20198;-63
2021/05/12 08:16:04;;;;;;;2.00;1.80;;;;;;;10.59;93.68;96346.31;5031659;28;20244;-63
2021/05/12 08:18:30;;;;;;;2.37;2.07;;;;;;;10.55;94.02;96352.28;5032354;28;20278;-64
2021/05/12 08:20:56;;;;;;;1.57;1.47;;;;;;;10.52;93.70;96344.91;5014849;28;20183;-64
2021/05/12 08:23:25;;;;;;;2.10;1.90;;;;;;;10.54;94.24;96346.22;5014155;28;20250;-63
2021/05/12 08:25:51;;;;;;;2.90;2.00;;;;;;;10.68;93.89;96350.16;5032253;28;20186;-64
2021/05/12 08:28:17;;;;;;;1.87;1.67;;;;;;;10.54;93.50;96342.81;5031458;28;20183;-64
2021/05/12 08:30:47;;;;;;;1.97;1.70;;;;;;;10.57;93.50;96350.22;5031305;28;20182;-63
2021/05/12 08:33:14;;;;;;;2.50;1.90;;;;;;;10.57;93.59;96344.97;5031049;28;20206;-63
2021/05/12 08:35:42;;;;;;;2.37;1.80;;;;;;;10.66;92.68;96340.94;5031739;28;20210;-63
2021/05/12 08:38:12;;;;;;;1.90;1.67;;;;;;;10.59;92.47;96348.16;5013510;28;20187;-62
2021/05/12 08:40:38;;;;;;;2.03;1.83;;;;;;;10.55;93.02;96352.28;5031684;28;20194;-62
2021/05/12 08:43:04;;;;;;;2.43;1.90;;;;;;;10.75;92.26;96348.19;5031650;28;20205;-65
2021/05/12 08:45:30;;;;;;;2.07;1.73;;;;;;;10.77;91.41;96347.91;5032538;28;20290;-64
2021/05/12 08:47:57;;;;;;;1.80;1.70;;;;;;;10.98;91.12;96341.94;5032124;28;20210;-65
2021/05/12 08:50:24;;;;;;;2.47;1.83;;;;;;;11.06;90.59;96344.19;5031230;28;20640;-64
2021/05/12 08:52:50;;;;;;;2.13;1.60;;;;;;;11.17;89.97;96342.50;5031969;28;20206;-65
2021/05/12 08:55:17;;;;;;;2.80;2.00;;;;;;;11.15;89.81;96349.81;5031060;28;20689;-65
2021/05/12 08:57:43;;;;;;;1.70;1.60;;;;;;;11.02;89.93;96345.69;5031695;28;20189;-64
2021/05/12 09:00:09;;;;;;;2.20;1.93;;;;;;;11.01;89.55;96349.34;5030510;28;20647;-65
2021/05/12 09:02:35;;;;;;;2.20;2.10;;;;;;;10.94;91.43;96342.69;5032275;28;20228;-64
2021/05/12 09:05:04;;;;;;;2.00;1.90;;;;;;;10.88;90.29;96346.25;5030319;28;20178;-65
2021/05/12 09:07:29;;;;;;;2.23;2.00;;;;;;;10.86;90.79;96345.72;5031950;28;20197;-65
2021/05/12 09:09:56;;;;;;;2.10;1.90;;;;;;;10.96;90.76;96343.25;5031352;28;20182;-64
2021/05/12 09:12:21;;;;;;;3.30;2.10;;;;;;;11.08;89.80;96344.75;5030675;28;20256;-64
2021/05/12 09:14:54;;;;;;;2.50;1.83;;;;;;;11.19;89.66;96336.00;5030699;28;20578;-65
2021/05/12 09:17:37;;;;;;;2.20;2.10;;;;;;;11.35;88.46;96342.22;5030780;28;20801;-64
2021/05/12 09:20:26;;;;;;;2.03;1.93;;;;;;;11.33;88.37;96346.13;5012817;28;20189;-65
2021/05/12 09:23:01;;;;;;;3.13;2.00;;;;;;;11.38;88.57;96338.31;5015848;28;20567;-65
2021/05/12 09:25:27;;;;;;;2.33;2.20;;;;;;;11.28;88.47;96346.84;5031215;28;20247;-65
2021/05/12 09:28:27;;;;;;;2.53;2.33;;;;;;;11.14;88.37;96340.38;5031224;28;20186;-65
2021/05/12 09:31:07;;;;;;;2.30;2.10;;;;;;;11.24;87.28;96343.94;5018320;28;20647;-64
2021/05/12 09:33:37;;;;;;;2.77;2.20;;;;;;;11.44;87.08;96348.66;5031635;28;20288;-65
2021/05/12 09:36:03;;;;;;;2.20;2.00;;;;;;;11.45;86.40;96347.63;5030264;28;20236;-64
2021/05/12 09:38:31;;;;;;;2.90;2.30;;;;;;;11.32;86.76;96347.16;5031165;28;20182;-64
2021/05/12 09:41:05;;;;;;;3.03;2.27;;;;;;;11.33;86.89;96351.38;5030760;28;20182;-64
2021/05/12 09:43:31;;;;;;;2.53;2.23;;;;;;;11.05;86.87;96342.59;5013576;28;20604;-64
2021/05/12 09:46:24;;;;;;;2.03;1.93;;;;;;;11.34;87.50;96347.72;5031231;28;20540;-65
2021/05/12 09:48:59;;;;;;;6.70;2.83;;;;;;;11.35;86.80;96350.09;5017986;28;20705;-65
2021/05/12 09:51:25;;;;;;;3.67;2.50;;;;;;;11.66;86.61;96348.66;5030887;28;20181;-64
2021/05/12 09:54:05;;;;;;;1.93;1.83;;;;;;;11.84;84.17;96344.97;5031237;28;20255;-65
2021/05/12 09:56:41;;;;;;;2.43;2.23;;;;;;;11.65;84.25;96341.81;5015528;28;20713;-65
2021/05/12 09:59:16;;;;;;;2.27;2.17;;;;;;;11.80;84.06;96343.88;5030013;28;20186;-65
2021/05/12 10:01:44;;;;;;;2.50;2.30;;;;;;;12.04;83.85;96343.38;5012496;28;20241;-64
2021/05/12 10:04:33;;;;;;;2.77;2.53;;;;;;;11.80;82.63;96336.81;5011235;28;20560;-64
2021/05/12 10:07:01;;;;;;;2.43;2.33;;;;;;;11.95;82.03;96347.47;5030863;28;20170;-64
2021/05/12 10:09:28;;;;;;;3.33;2.47;;;;;;;12.16;82.38;96345.84;5030756;28;20195;-63
2021/05/12 10:12:14;;;;;;;5.97;2.40;;;;;;;12.24;80.85;96336.75;5031075;28;20206;-63
2021/05/12 10:14:42;;;;;;;2.40;2.30;;;;;;;12.16;81.52;96339.81;5030514;28;20182;-63
2021/05/12 10:17:10;;;;;;;2.80;2.57;;;;;;;12.20;81.54;96333.03;5029880;28;20186;-63
2021/05/12 10:19:37;;;;;;;3.17;2.97;;;;;;;12.08;81.65;96330.53;5030878;28;20195;-63
2021/05/12 10:22:04;;;;;;;3.97;2.20;;;;;;;12.04;81.89;96327.59;5024361;28;20191;-63
2021/05/12 10:24:33;;;;;;;2.57;2.30;;;;;;;12.12;81.71;96328.22;5016753;28;20210;-63
2021/05/12 10:27:02;;;;;;;6.00;2.60;;;;;;;12.20;81.53;96327.78;5030808;28;20265;-63
2021/05/12 10:29:31;;;;;;;2.60;2.40;;;;;;;12.04;82.09;96332.06;5030363;28;20190;-63
2021/05/12 10:31:56;;;;;;;3.07;2.37;;;;;;;12.27;81.53;96336.25;5029742;28;20199;-63
2021/05/12 10:34:39;;;;;;;2.30;2.20;;;;;;;12.69;80.85;96331.91;5030049;28;20193;-63
2021/05/12 10:37:21;;;;;;;2.43;2.23;;;;;;;12.87;79.46;96330.75;5030385;28;20179;-63
2021/05/12 10:40:00;;;;;;;2.80;2.10;;;;;;;13.04;78.80;96333.22;5033766;28;20247;-63
2021/05/12 10:42:50;;;;;;;2.43;2.23;;;;;;;12.99;77.94;96336.59;5016861;28;20262;-63
2021/05/12 10:45:34;;;;;;;2.73;2.60;;;;;;;12.94;78.76;96341.81;5015927;28;20225;-63
2021/05/12 10:48:01;;;;;;;2.97;2.40;;;;;;;12.29;79.80;96334.97;5033671;28;20171;-63
2021/05/12 10:50:50;;;;;;;3.10;2.43;;;;;;;12.45;80.46;96330.63;5033557;28;20194;-63
2021/05/12 10:53:24;;;;;;;3.00;2.20;;;;;;;12.26;82.11;96335.44;5026132;28;20222;-63
2021/05/12 10:55:59;;;;;;;3.37;2.70;;;;;;;12.17;80.80;96334.31;5032956;28;20186;-62
2021/05/12 10:58:37;;;;;;;2.73;2.50;;;;;;;12.17;80.39;96331.69;5024746;28;20186;-62
2021/05/12 11:01:13;;;;;;;2.60;2.40;;;;;;;12.00;81.23;96329.16;5029870;28;20233;-62
2021/05/12 11:03:50;;;;;;;2.80;2.67;;;;;;;11.96;82.33;96327.25;5032670;28;20265;-62
2021/05/12 11:06:34;;;;;;;3.43;2.63;;;;;;;11.98;82.09;96333.84;5032708;28;20208;-62
2021/05/12 11:09:14;;;;;;;2.70;2.50;;;;;;;11.98;81.67;96325.97;5015267;28;20262;-62
2021/05/12 11:11:45;;;;;;;2.80;2.60;;;;;;;11.96;81.37;96325.44;5033391;28;20201;-62
2021/05/12 11:14:36;;;;;;;7.43;2.80;;;;;;;12.16;81.26;96318.78;5015005;28;20186;-62
2021/05/12 11:17:05;;;;;;;3.00;2.70;;;;;;;12.29;79.38;96318.41;5032832;28;20194;-63
2021/05/12 11:19:40;;;;;;;3.07;2.40;;;;;;;12.17;78.72;96315.91;5033196;28;20198;-63
2021/05/12 11:22:25;;;;;;;4.67;2.40;;;;;;;12.24;79.62;96319.16;5015069;28;20526;-64
2021/05/12 11:24:53;;;;;;;2.57;2.37;;;;;;;12.27;78.28;96315.22;5033084;28;20268;-63
2021/05/12 11:32:35;;;;;;;3.60;2.70;;;;;;;12.43;76.89;96307.22;5032358;28;20671;-63
2021/05/12 11:35:03;;;;;;;3.70;2.60;;;;;;;12.74;76.53;96304.84;5029709;28;20558;-64
2021/05/12 11:37:29;;;;;;;2.30;2.10;;;;;;;13.05;75.15;96300.59;5032620;28;20178;-62
2021/05/12 11:39:56;;;;;;;3.30;2.20;;;;;;;13.21;74.64;96305.72;5032466;28;20209;-63